Country
Station

 

Weather  for  Agadir  -  Morocco    Morocco

  
23 °C (73 °F)
    
 
 

Current METAR for Agadir is :

GMAA 241135Z 26004KT 6000 FEW010 SCT020 23/21 Q1014 B2

 

This is a report for Agadir - Morocco.
 
The report was made 579 hours and 22 minutes ago, at 11:35 UTC .
The wind was blowing at a speed of 2.1 meters per second (4.6 miles per hour) from west (260°).
 
The temperature was 23 °C (73 °F), with a dew-point at 21 °C (70 °F).
The temperature felt like 22 °C (71 °F).
 
The atmospheric pressure was 1014 hPa (29.94 inHg).
The relative humidity was 88.5%.
 
There were a few clouds at a height of 305 meters (1000 feet) and scattered clouds at a height of 610 meters (2000 feet).
 
The overall visibility was 6.0 kilometers (3.7 miles).
 

 
 
 
 

Country :   A   B   C   D   E   F   G   H   I   J   K   L   M   N   O   P   Q   R   S   T   U   V   W   Y   Z

 

Site Info  |  Disclaimer  |  Credits  |  Privacy
Contact us  |  Add to favorites
© 2013-2018 METARs - All rights reserved